createdAt,value
2018-11-05T00:01:32.207Z,6.10
2018-11-05T00:04:00.392Z,6.10
2018-11-05T00:06:29.901Z,6.10
2018-11-05T00:08:58.078Z,6.10
2018-11-05T00:13:54.302Z,6.00
2018-11-05T00:16:22.446Z,6.00
2018-11-05T00:18:51.525Z,6.10
2018-11-05T00:23:49.993Z,6.10
2018-11-05T00:26:18.223Z,6.00
2018-11-05T00:28:46.354Z,5.90
2018-11-05T00:31:14.495Z,5.90
2018-11-05T00:33:42.721Z,5.80
2018-11-05T00:36:10.857Z,5.80
2018-11-05T00:38:38.994Z,5.80
2018-11-05T00:41:07.830Z,5.70
2018-11-05T00:55:57.189Z,5.50
2018-11-05T01:00:54.097Z,5.40
2018-11-05T01:03:22.233Z,5.40
2018-11-05T01:05:51.237Z,5.30
2018-11-05T01:08:19.581Z,5.30
2018-11-05T01:10:47.975Z,5.30
2018-11-05T01:13:17.086Z,5.30
2018-11-05T01:30:33.510Z,5.00
2018-11-05T01:33:01.637Z,5.10
2018-11-05T01:35:30.429Z,5.10
2018-11-05T01:37:58.549Z,5.20
2018-11-05T01:40:26.694Z,5.20
2018-11-05T01:42:55.653Z,5.10
2018-11-05T01:45:23.797Z,5.10
2018-11-05T01:47:51.970Z,5.20
2018-11-05T01:50:20.121Z,5.30
2018-11-05T01:52:48.690Z,5.50
2018-11-05T01:55:18.192Z,5.70
2018-11-05T01:57:47.119Z,5.80
2018-11-05T02:00:17.112Z,5.90
2018-11-05T02:02:46.510Z,6.10
2018-11-05T02:05:14.908Z,6.10
2018-11-05T02:07:44.279Z,6.20
2018-11-05T02:10:17.235Z,6.20
2018-11-05T02:12:45.482Z,6.40
2018-11-05T02:15:14.127Z,6.50
2018-11-05T02:17:44.248Z,6.50
2018-11-05T02:20:14.166Z,6.60
2018-11-05T02:25:12.346Z,6.70
2018-11-05T02:27:40.849Z,6.70
2018-11-05T02:32:40.497Z,6.80
2018-11-05T02:35:11.123Z,6.80
2018-11-05T02:37:40.935Z,6.80
2018-11-05T02:40:12.579Z,6.90
2018-11-05T02:42:43.158Z,6.80
2018-11-05T02:45:14.103Z,6.80
2018-11-05T02:47:42.348Z,6.80
2018-11-05T02:50:11.694Z,6.80
2018-11-05T02:52:40.921Z,6.80
2018-11-05T02:57:38.218Z,6.80
2018-11-05T03:00:11.569Z,6.90
2018-11-05T03:02:40.427Z,6.90
2018-11-05T03:05:11.604Z,6.90
2018-11-05T03:07:40.582Z,6.90
2018-11-05T03:10:10.083Z,6.90
2018-11-05T03:12:38.588Z,6.90
2018-11-05T03:20:04.064Z,6.90
2018-11-05T03:25:00.232Z,6.90
2018-11-05T03:27:28.713Z,6.90
2018-11-05T03:29:57.037Z,6.90
2018-11-05T03:32:25.221Z,6.90
2018-11-05T03:34:53.375Z,6.90
2018-11-05T03:39:49.982Z,7.00
2018-11-05T03:44:46.080Z,6.90
2018-11-05T03:47:14.810Z,6.80
2018-11-05T03:49:43.682Z,6.80
2018-11-05T03:52:12.450Z,6.90
2018-11-05T03:54:40.610Z,6.80
2018-11-05T03:57:08.766Z,6.80
2018-11-05T03:59:37.316Z,6.70
2018-11-05T04:02:06.248Z,6.80
2018-11-05T04:04:34.422Z,6.80
2018-11-05T04:07:02.748Z,6.80
2018-11-05T04:09:30.904Z,6.80
2018-11-05T04:11:59.633Z,6.80
2018-11-05T04:14:27.915Z,6.80
2018-11-05T04:16:57.228Z,6.80
2018-11-05T04:19:25.515Z,6.70
2018-11-05T04:21:55.148Z,6.70
2018-11-05T04:26:52.071Z,6.70
2018-11-05T04:29:20.381Z,6.70
2018-11-05T04:31:49.481Z,6.60
2018-11-05T04:34:18.835Z,6.60
2018-11-05T04:36:47.090Z,6.60
2018-11-05T04:39:16.149Z,6.60
2018-11-05T04:41:44.330Z,6.60
2018-11-05T04:44:12.514Z,6.60
2018-11-05T04:46:42.110Z,6.60
2018-11-05T04:56:35.966Z,6.70
2018-11-05T04:59:04.150Z,6.70
2018-11-05T05:01:33.656Z,6.70
2018-11-05T05:04:03.269Z,6.70
2018-11-05T05:11:27.503Z,6.50
2018-11-05T05:13:56.468Z,6.50
2018-11-05T05:16:25.671Z,6.50
2018-11-05T05:18:53.746Z,6.40
2018-11-05T05:21:21.905Z,6.40
2018-11-05T05:23:50.878Z,6.30
2018-11-05T05:26:19.035Z,6.20
2018-11-05T05:28:48.185Z,6.20
2018-11-05T05:31:16.342Z,6.20
2018-11-05T05:36:12.502Z,6.10
2018-11-05T05:38:40.802Z,6.10
2018-11-05T05:41:09.074Z,6.00
2018-11-05T05:43:37.373Z,6.00
2018-11-05T05:46:06.020Z,6.10
2018-11-05T05:48:34.194Z,6.10
2018-11-05T05:51:02.354Z,6.20
2018-11-05T05:53:31.028Z,6.20
2018-11-05T05:58:28.039Z,6.30
2018-11-05T06:00:56.991Z,6.30
2018-11-05T06:03:26.307Z,6.40
2018-11-05T06:05:54.827Z,6.40
2018-11-05T06:10:51.117Z,6.30
2018-11-05T06:13:19.286Z,6.30
2018-11-05T06:15:48.252Z,6.30
2018-11-05T06:18:16.393Z,6.30
2018-11-05T06:20:45.057Z,6.30
2018-11-05T06:25:42.607Z,6.40
2018-11-05T06:28:12.179Z,6.40
2018-11-05T06:30:40.356Z,6.40
2018-11-05T06:33:08.511Z,6.30
2018-11-05T06:35:36.687Z,6.30
2018-11-05T06:38:05.706Z,6.40
2018-11-05T06:40:35.143Z,6.40
2018-11-05T06:43:04.475Z,6.40
2018-11-05T06:45:33.951Z,6.40
2018-11-05T06:48:03.367Z,6.40
2018-11-05T06:50:33.126Z,6.30
2018-11-05T07:02:56.175Z,6.30
2018-11-05T07:07:52.265Z,6.30
2018-11-05T07:10:20.434Z,6.30
2018-11-05T07:12:49.338Z,6.30
2018-11-05T07:15:19.845Z,6.20
2018-11-05T07:17:49.328Z,6.20
2018-11-05T07:25:16.171Z,6.10
2018-11-05T07:30:19.222Z,6.10
2018-11-05T07:32:51.193Z,6.10
2018-11-05T07:37:48.526Z,6.10
2018-11-05T07:40:18.220Z,6.10
2018-11-05T07:42:46.810Z,6.00
2018-11-05T07:47:45.885Z,6.10
2018-11-05T07:57:42.435Z,6.30
2018-11-05T08:00:19.537Z,6.30
2018-11-05T08:02:49.786Z,6.30
2018-11-05T08:05:19.216Z,6.40
2018-11-05T08:07:47.674Z,6.30
2018-11-05T08:10:15.847Z,6.30
2018-11-05T08:15:15.107Z,6.50
2018-11-05T08:20:13.055Z,6.50
2018-11-05T08:22:41.227Z,6.50
2018-11-05T08:25:10.363Z,6.60
2018-11-05T08:30:17.767Z,6.60
2018-11-05T08:32:46.009Z,6.60
2018-11-05T08:37:43.586Z,6.60
2018-11-05T08:45:13.448Z,6.80
2018-11-05T08:47:42.844Z,6.90
2018-11-05T08:50:13.426Z,6.90
2018-11-05T09:02:43.441Z,7.30
2018-11-05T09:05:12.075Z,7.30
2018-11-05T09:10:09.186Z,7.30
2018-11-05T09:12:38.342Z,7.30
2018-11-05T09:15:08.646Z,7.30
2018-11-05T09:20:07.166Z,7.40
2018-11-05T09:30:01.165Z,7.50
2018-11-05T09:32:29.340Z,7.60
2018-11-05T09:34:58.135Z,7.70
2018-11-05T09:39:54.833Z,7.80
2018-11-05T09:42:22.979Z,7.90
2018-11-05T09:49:50.512Z,8.10
2018-11-05T09:52:20.483Z,8.20
2018-11-05T10:04:44.842Z,8.50
2018-11-05T10:07:12.758Z,8.50
2018-11-05T10:09:41.897Z,8.70
2018-11-05T10:12:10.050Z,8.80
2018-11-05T10:14:38.196Z,8.80
2018-11-05T10:17:07.522Z,8.90
2018-11-05T10:19:35.972Z,8.80
2018-11-05T10:24:32.655Z,8.90
2018-11-05T10:27:00.737Z,8.90
2018-11-05T10:29:28.887Z,9.00
2018-11-05T10:31:57.038Z,9.20
2018-11-05T10:34:25.206Z,9.20
2018-11-05T10:36:54.229Z,9.40
2018-11-05T10:39:23.855Z,9.60
2018-11-05T10:41:52.638Z,9.70
2018-11-05T10:44:20.783Z,9.80
2018-11-05T10:49:17.022Z,10.10
2018-11-05T10:54:13.139Z,10.40
2018-11-05T10:59:11.582Z,10.60
2018-11-05T11:01:45.218Z,10.60
2018-11-05T11:04:19.487Z,10.70
2018-11-05T11:09:16.680Z,10.90
2018-11-05T11:11:46.729Z,10.90
2018-11-05T11:19:12.603Z,10.80
2018-11-05T11:21:42.995Z,10.80
2018-11-05T11:24:11.154Z,10.60
2018-11-05T11:26:41.167Z,10.60
2018-11-05T11:29:09.400Z,10.60
2018-11-05T11:34:05.637Z,10.60
2018-11-05T11:36:34.090Z,10.70
2018-11-05T11:39:02.221Z,10.80
2018-11-05T11:41:30.374Z,10.90
2018-11-05T11:46:26.447Z,11.30
2018-11-05T11:48:54.602Z,11.40
2018-11-05T11:51:22.785Z,11.50
2018-11-05T11:53:54.153Z,11.70
2018-11-05T12:01:19.984Z,12.10
2018-11-05T12:06:18.818Z,12.30
2018-11-05T12:08:46.963Z,12.50
2018-11-05T12:11:17.107Z,12.50
2018-11-05T12:13:45.398Z,12.60
2018-11-05T12:16:13.683Z,12.70
2018-11-05T12:18:42.711Z,12.70
2018-11-05T12:21:12.570Z,12.80
2018-11-05T12:26:08.978Z,13.10
2018-11-05T12:28:37.122Z,13.20
2018-11-05T12:31:06.491Z,13.20
2018-11-05T12:33:35.851Z,13.30
2018-11-05T12:36:04.003Z,13.40
2018-11-05T12:38:32.293Z,13.50
2018-11-05T12:41:01.046Z,13.50
2018-11-05T12:48:28.538Z,13.50
2018-11-05T12:50:56.866Z,13.60
2018-11-05T12:53:27.076Z,13.70
2018-11-05T12:55:55.467Z,13.70
2018-11-05T12:58:25.866Z,13.70
2018-11-05T13:00:54.216Z,13.80
2018-11-05T13:05:52.143Z,13.80
2018-11-05T13:08:20.305Z,14.00
2018-11-05T13:10:48.450Z,14.00
2018-11-05T13:13:17.302Z,14.00
2018-11-05T13:15:45.450Z,14.00
2018-11-05T13:20:44.242Z,14.10
2018-11-05T13:23:13.522Z,14.10
2018-11-05T13:28:11.585Z,14.10
2018-11-05T13:30:39.751Z,14.20
2018-11-05T13:33:09.526Z,14.20
2018-11-05T13:38:07.648Z,14.30
2018-11-05T13:43:04.661Z,14.20
2018-11-05T13:48:03.779Z,14.30
2018-11-05T13:50:32.173Z,14.30
2018-11-05T13:53:01.883Z,14.30
2018-11-05T14:00:25.919Z,14.30
2018-11-05T14:05:23.872Z,14.20
2018-11-05T14:07:52.342Z,14.20
2018-11-05T14:10:21.106Z,14.20
2018-11-05T14:12:49.853Z,14.10
2018-11-05T14:15:19.434Z,14.10
2018-11-05T14:17:48.679Z,14.10
2018-11-05T14:20:18.058Z,14.10
2018-11-05T14:25:16.813Z,14.00
2018-11-05T14:27:47.136Z,14.00
2018-11-05T14:30:15.570Z,13.90
2018-11-05T14:35:13.568Z,13.80
2018-11-05T14:37:41.717Z,13.70
2018-11-05T14:40:13.238Z,13.60
2018-11-05T14:45:16.698Z,13.60
2018-11-05T14:47:45.562Z,13.60
2018-11-05T14:50:15.329Z,13.50
2018-11-05T14:57:42.370Z,13.10
2018-11-05T15:00:15.067Z,13.00
2018-11-05T15:02:44.907Z,13.00
2018-11-05T15:05:13.763Z,12.90
2018-11-05T15:07:43.343Z,12.80
2018-11-05T15:10:21.746Z,12.70
2018-11-05T15:15:19.979Z,12.50
2018-11-05T15:17:48.397Z,12.50
2018-11-05T15:20:21.195Z,12.40
2018-11-05T15:27:48.891Z,12.20
2018-11-05T15:30:19.666Z,12.20
2018-11-05T15:32:47.900Z,12.10
2018-11-05T15:35:17.781Z,12.00
2018-11-05T15:37:48.894Z,12.00
2018-11-05T15:40:18.410Z,11.90
2018-11-05T15:42:47.546Z,11.80
2018-11-05T15:45:18.791Z,11.80
2018-11-05T15:47:46.943Z,11.70
2018-11-05T15:50:16.329Z,11.60
2018-11-05T15:52:45.523Z,11.60
2018-11-05T15:55:13.724Z,11.50
2018-11-05T16:00:15.271Z,11.40
2018-11-05T16:02:45.394Z,11.30
2018-11-05T16:10:13.388Z,11.20
2018-11-05T16:12:43.238Z,11.10
2018-11-05T16:17:40.631Z,11.00
2018-11-05T16:22:42.629Z,10.80
2018-11-05T16:27:40.646Z,10.60
2018-11-05T16:30:15.706Z,10.50
2018-11-05T16:37:40.387Z,10.40
2018-11-05T16:40:13.255Z,10.20
2018-11-05T16:42:42.099Z,10.20
2018-11-05T16:45:12.796Z,10.20
2018-11-05T16:50:17.584Z,9.90
2018-11-05T16:57:45.859Z,9.80
2018-11-05T17:00:19.381Z,9.80
2018-11-05T17:02:49.766Z,9.70
2018-11-05T17:05:17.818Z,9.60
2018-11-05T17:07:48.910Z,9.50
2018-11-05T17:10:17.211Z,9.50
2018-11-05T17:12:46.670Z,9.50
2018-11-05T17:17:46.318Z,9.20
2018-11-05T17:20:17.070Z,9.10
2018-11-05T17:22:46.530Z,9.00
2018-11-05T17:27:44.658Z,8.80
2018-11-05T17:30:17.091Z,8.80
2018-11-05T17:32:45.445Z,8.80
2018-11-05T17:35:15.106Z,8.70
2018-11-05T17:37:43.692Z,8.70
2018-11-05T17:40:15.707Z,8.60
2018-11-05T17:42:44.006Z,8.50
2018-11-05T17:50:12.999Z,8.30
2018-11-05T17:52:41.562Z,8.20
2018-11-05T17:57:41.152Z,8.00
2018-11-05T18:00:12.289Z,7.90
2018-11-05T18:02:40.446Z,8.00
2018-11-05T18:07:36.550Z,7.90
2018-11-05T18:10:06.012Z,7.70
2018-11-05T18:17:30.183Z,7.60
2018-11-05T18:19:58.339Z,7.50
2018-11-05T18:22:26.799Z,7.50
2018-11-05T18:24:54.970Z,7.50
2018-11-05T18:27:23.146Z,7.50
2018-11-05T18:29:51.383Z,7.50
2018-11-05T18:32:21.692Z,7.50
2018-11-05T18:34:51.566Z,7.50
2018-11-05T18:37:19.736Z,7.40
2018-11-05T18:39:48.122Z,7.40
2018-11-05T18:42:16.296Z,7.40
2018-11-05T18:44:44.503Z,7.40
2018-11-05T18:47:13.425Z,7.30
2018-11-05T18:57:07.097Z,7.10
2018-11-05T18:59:35.866Z,6.90
2018-11-05T19:04:32.928Z,6.90
2018-11-05T19:07:01.099Z,6.90
2018-11-05T19:14:26.637Z,7.00
2018-11-05T19:19:22.830Z,6.90
2018-11-05T19:21:51.909Z,7.00
2018-11-05T19:26:49.062Z,6.80
2018-11-05T19:29:17.234Z,6.80
2018-11-05T19:31:45.391Z,6.80
2018-11-05T19:34:14.394Z,6.70
2018-11-05T19:36:43.855Z,6.50
2018-11-05T19:39:13.403Z,6.30
2018-11-05T19:41:41.836Z,6.30
2018-11-05T19:44:09.947Z,6.30
2018-11-05T19:46:38.646Z,6.30
2018-11-05T19:49:06.842Z,6.20
2018-11-05T19:51:35.617Z,6.10
2018-11-05T19:56:33.550Z,6.10
2018-11-05T20:01:29.729Z,6.20
2018-11-05T20:06:27.210Z,6.20
2018-11-05T20:08:55.752Z,6.20
2018-11-05T20:11:25.252Z,6.20
2018-11-05T20:13:53.877Z,6.20
2018-11-05T20:16:23.685Z,6.00
2018-11-05T20:18:51.956Z,6.10
2018-11-05T20:21:20.841Z,6.10
2018-11-05T20:23:50.553Z,6.10
2018-11-05T20:26:18.742Z,6.10
2018-11-05T20:31:17.108Z,6.20
2018-11-05T20:33:45.287Z,6.20
2018-11-05T20:36:13.371Z,6.20
2018-11-05T20:41:10.570Z,6.10
2018-11-05T20:43:39.756Z,6.10
2018-11-05T20:46:08.469Z,6.10
2018-11-05T20:48:36.626Z,6.10
2018-11-05T20:51:05.242Z,6.00
2018-11-05T20:53:34.336Z,6.00
2018-11-05T20:56:03.577Z,6.00
2018-11-05T20:58:31.726Z,5.90
2018-11-05T21:00:59.924Z,5.80
2018-11-05T21:03:28.070Z,5.70
2018-11-05T21:05:56.242Z,5.70
2018-11-05T21:08:24.406Z,5.70
2018-11-05T21:20:44.968Z,5.90
2018-11-05T21:23:13.120Z,6.00
2018-11-05T21:25:41.707Z,5.90
2018-11-05T21:30:38.650Z,5.80
2018-11-05T21:33:07.947Z,5.60
2018-11-05T21:35:37.814Z,5.60
2018-11-05T21:38:09.452Z,5.60
2018-11-05T21:40:37.819Z,5.70
2018-11-05T21:43:06.457Z,5.60
2018-11-05T21:45:35.682Z,5.50
2018-11-05T21:55:34.830Z,5.40
2018-11-05T21:58:03.577Z,5.40
2018-11-05T22:00:31.746Z,5.30
2018-11-05T22:03:03.463Z,5.30
2018-11-05T22:05:31.653Z,5.30
2018-11-05T22:08:00.174Z,5.40
2018-11-05T22:12:56.283Z,5.20
2018-11-05T22:15:24.945Z,5.20
2018-11-05T22:22:49.160Z,5.50
2018-11-05T22:25:19.864Z,5.60
2018-11-05T22:30:17.067Z,5.90
2018-11-05T22:32:45.238Z,6.00
2018-11-05T22:35:14.429Z,6.10
2018-11-05T22:37:42.666Z,5.90
2018-11-05T22:42:40.168Z,5.70
2018-11-05T22:45:08.601Z,5.80
2018-11-05T22:47:36.854Z,5.80
2018-11-05T22:55:03.276Z,6.00
2018-11-05T22:57:32.226Z,6.00
2018-11-05T23:00:00.398Z,5.90
2018-11-05T23:02:28.630Z,5.70
2018-11-05T23:04:57.942Z,5.60
2018-11-05T23:07:26.382Z,5.60
2018-11-05T23:09:55.334Z,5.70
2018-11-05T23:12:25.914Z,5.60
2018-11-05T23:14:54.146Z,5.70
2018-11-05T23:17:22.318Z,5.70
2018-11-05T23:19:50.495Z,5.30
2018-11-05T23:22:20.421Z,5.20
2018-11-05T23:24:48.803Z,5.30
2018-11-05T23:27:17.628Z,5.30
2018-11-05T23:29:45.809Z,5.40
2018-11-05T23:32:14.146Z,5.60
2018-11-05T23:34:42.531Z,5.40
2018-11-05T23:37:10.703Z,5.10
2018-11-05T23:39:38.914Z,4.90
2018-11-05T23:42:08.330Z,4.90
2018-11-05T23:44:37.690Z,5.00
2018-11-05T23:49:33.770Z,5.10
2018-11-05T23:56:58.452Z,5.50
2018-11-05T23:59:26.911Z,5.60
